Time;durP1;ratioP1;P1;durP2;ratioP2;P2;SDS_P1;SDS_P2;PMS_P1;PMS_P2;Temp;Humidity;BMP_temperature;BMP_pressure;BME280_temperature;BME280_humidity;BME280_pressure;Samples;Min_cycle;Max_cycle;Signal;HPM_P1;HPM_P2
2021/06/09 05:02:35;;;;;;;14.10;10.27;;;16.20;99.90;;;;;;4895908;29;20127;-84
2021/06/09 05:05:01;;;;;;;13.80;10.68;;;16.30;99.90;;;;;;4898033;29;20128;-84
2021/06/09 05:07:28;;;;;;;16.27;12.20;;;16.40;99.90;;;;;;4898329;29;20049;-85
2021/06/09 05:09:55;;;;;;;16.40;12.35;;;16.50;99.90;;;;;;4898385;29;20135;-86
2021/06/09 05:12:25;;;;;;;15.63;11.38;;;16.50;99.90;;;;;;4888264;29;20134;-85
2021/06/09 05:14:59;;;;;;;15.18;11.27;;;16.60;99.90;;;;;;4888490;29;20044;-86
2021/06/09 05:17:30;;;;;;;17.88;12.73;;;16.60;99.90;;;;;;4885189;29;20181;-87
2021/06/09 05:20:00;;;;;;;15.55;11.95;;;16.60;99.90;;;;;;4884571;29;20136;-88
2021/06/09 05:22:32;;;;;;;13.63;10.63;;;16.70;99.90;;;;;;4897705;29;20601;-86
2021/06/09 05:25:05;;;;;;;14.60;10.65;;;16.70;99.90;;;;;;4886117;29;20091;-87
2021/06/09 05:27:33;;;;;;;12.98;10.43;;;16.70;99.90;;;;;;4894592;29;20179;-94
2021/06/09 05:30:02;;;;;;;14.18;11.27;;;16.70;99.90;;;;;;4885165;29;20053;-83
2021/06/09 05:32:30;;;;;;;16.00;12.32;;;16.70;99.90;;;;;;4887849;29;20472;-84
2021/06/09 05:34:59;;;;;;;13.95;11.48;;;16.70;99.90;;;;;;4894187;29;20135;-83
2021/06/09 05:37:26;;;;;;;15.88;11.68;;;16.70;99.90;;;;;;4883356;29;20045;-87
2021/06/09 05:39:58;;;;;;;14.38;11.77;;;16.70;99.90;;;;;;4897453;29;20499;-86
2021/06/09 05:42:25;;;;;;;15.52;12.48;;;16.70;99.90;;;;;;4889310;29;20049;-86
2021/06/09 05:44:54;;;;;;;16.13;11.68;;;16.70;99.90;;;;;;4889246;29;20499;-87
2021/06/09 05:47:21;;;;;;;14.88;11.70;;;16.70;99.90;;;;;;4911789;23;20060;-81
2021/06/09 05:49:48;;;;;;;15.07;10.93;;;16.70;99.90;;;;;;4935812;29;20142;-81
2021/06/09 05:52:16;;;;;;;15.95;11.68;;;16.70;99.90;;;;;;4936468;29;20504;-83
2021/06/09 05:54:44;;;;;;;17.35;12.98;;;16.80;99.90;;;;;;4936259;29;20054;-83
2021/06/09 05:57:12;;;;;;;15.30;12.18;;;16.80;99.90;;;;;;4935912;29;20044;-83
2021/06/09 05:59:41;;;;;;;14.48;11.93;;;16.90;99.90;;;;;;4937373;29;20062;-81
2021/06/09 06:02:08;;;;;;;16.17;12.15;;;16.90;99.90;;;;;;4932627;29;20048;-80
2021/06/09 06:04:37;;;;;;;16.50;12.25;;;16.90;99.90;;;;;;4930191;29;20139;-80
2021/06/09 06:07:05;;;;;;;14.82;11.95;;;17.00;99.90;;;;;;4948988;29;20504;-80
2021/06/09 06:09:33;;;;;;;14.73;11.20;;;17.00;99.90;;;;;;4954422;29;20134;-78
2021/06/09 06:12:00;;;;;;;15.15;11.20;;;17.10;99.90;;;;;;4948696;29;20075;-79
2021/06/09 06:14:27;;;;;;;15.32;12.02;;;17.10;99.90;;;;;;4948267;29;20061;-78
2021/06/09 06:16:55;;;;;;;15.68;12.07;;;17.10;99.90;;;;;;4940765;29;20067;-83
2021/06/09 06:19:23;;;;;;;16.20;11.90;;;17.20;99.90;;;;;;4946166;29;20107;-84
2021/06/09 06:21:50;;;;;;;15.63;12.15;;;17.30;99.90;;;;;;4925785;29;20553;-85
2021/06/09 06:24:17;;;;;;;16.40;11.20;;;17.30;99.90;;;;;;4952167;29;20085;-85
2021/06/09 06:26:47;;;;;;;13.35;10.48;;;17.40;99.90;;;;;;4944738;29;20087;-81
2021/06/09 06:29:14;;;;;;;14.30;11.10;;;17.50;99.90;;;;;;4945302;29;20461;-81
2021/06/09 06:31:41;;;;;;;14.38;10.65;;;17.60;99.90;;;;;;4940328;29;20059;-82
2021/06/09 06:34:09;;;;;;;16.98;12.70;;;17.70;99.90;;;;;;4950303;29;20130;-84
2021/06/09 06:36:39;;;;;;;14.25;10.55;;;17.70;99.90;;;;;;4946427;29;20462;-86
2021/06/09 06:39:07;;;;;;;13.77;10.82;;;17.80;99.90;;;;;;4948097;29;20141;-84
2021/06/09 06:41:34;;;;;;;13.43;10.68;;;17.80;99.90;;;;;;4946433;29;20135;-85
2021/06/09 06:44:03;;;;;;;14.75;11.02;;;17.80;99.90;;;;;;4944789;29;20079;-75
2021/06/09 06:46:30;;;;;;;12.40;9.88;;;17.80;99.90;;;;;;4938407;29;20139;-75
2021/06/09 06:48:57;;;;;;;12.32;9.80;;;17.90;99.90;;;;;;4937485;29;20094;-79
2021/06/09 06:51:25;;;;;;;14.18;10.77;;;17.90;99.90;;;;;;4937846;29;20167;-80
2021/06/09 06:53:54;;;;;;;12.20;9.00;;;18.00;99.90;;;;;;4939345;29;20066;-83
2021/06/09 06:56:22;;;;;;;14.82;10.60;;;18.00;99.90;;;;;;4942125;29;20055;-85
2021/06/09 06:58:51;;;;;;;14.63;10.90;;;18.10;99.90;;;;;;4939876;29;20141;-86
2021/06/09 07:01:22;;;;;;;15.63;11.07;;;18.10;99.90;;;;;;4939548;29;20060;-84
2021/06/09 07:03:50;;;;;;;16.52;12.35;;;18.10;99.90;;;;;;4924893;29;20058;-87
2021/06/09 07:06:18;;;;;;;14.68;10.65;;;18.10;99.90;;;;;;4934621;29;20064;-85
2021/06/09 07:08:47;;;;;;;17.55;12.48;;;18.10;99.90;;;;;;4948851;29;20051;-90
2021/06/09 07:11:15;;;;;;;16.58;12.73;;;18.10;99.90;;;;;;4940424;29;20060;-87
2021/06/09 07:13:45;;;;;;;17.92;13.77;;;18.10;99.90;;;;;;4939294;29;20047;-87
2021/06/09 07:16:12;;;;;;;17.38;12.77;;;18.10;99.90;;;;;;4935629;29;20094;-88
2021/06/09 07:18:44;;;;;;;15.25;11.25;;;18.00;99.90;;;;;;4938767;29;20086;-88
2021/06/09 07:21:14;;;;;;;15.27;11.50;;;18.10;99.90;;;;;;4938944;29;20052;-89
2021/06/09 07:23:43;;;;;;;12.10;9.55;;;18.10;99.90;;;;;;4922171;29;20472;-88
2021/06/09 07:26:11;;;;;;;12.82;9.95;;;18.20;99.90;;;;;;4938705;29;20082;-91
2021/06/09 07:28:45;;;;;;;13.32;10.43;;;18.20;99.90;;;;;;4939802;29;20062;-89
2021/06/09 07:31:13;;;;;;;13.67;10.33;;;18.30;99.90;;;;;;4939064;29;20138;-89
2021/06/09 07:33:41;;;;;;;16.48;11.38;;;18.40;99.90;;;;;;4938552;29;20091;-89
2021/06/09 07:36:10;;;;;;;14.02;11.00;;;18.50;99.90;;;;;;4939265;29;20099;-83
2021/06/09 07:38:43;;;;;;;15.18;11.88;;;18.60;99.90;;;;;;4937465;29;20058;-87
2021/06/09 07:41:12;;;;;;;13.50;11.00;;;18.60;99.90;;;;;;4937496;29;20076;-84
2021/06/09 07:43:42;;;;;;;14.23;10.60;;;18.70;99.90;;;;;;4937427;29;20086;-89
2021/06/09 07:46:11;;;;;;;12.23;10.68;;;18.80;99.90;;;;;;4938219;29;20071;-83
2021/06/09 07:48:40;;;;;;;11.88;9.52;;;18.80;99.90;;;;;;4937199;29;20093;-84
2021/06/09 07:51:11;;;;;;;12.85;10.40;;;18.90;99.90;;;;;;4938714;29;20060;-86
2021/06/09 07:53:39;;;;;;;13.30;11.02;;;18.90;99.90;;;;;;4937595;29;20134;-83
2021/06/09 07:56:08;;;;;;;14.55;11.05;;;19.00;99.90;;;;;;4920480;29;20476;-82
2021/06/09 07:58:35;;;;;;;15.38;10.10;;;19.00;99.90;;;;;;4937226;29;20055;-84
2021/06/09 08:01:03;;;;;;;12.65;9.80;;;19.10;99.90;;;;;;4943651;29;20506;-82
2021/06/09 08:03:33;;;;;;;14.15;10.90;;;19.30;99.90;;;;;;4938198;29;20464;-85
2021/06/09 08:06:01;;;;;;;15.68;11.75;;;19.30;99.90;;;;;;4937250;29;20048;-80
2021/06/09 08:08:28;;;;;;;13.93;11.45;;;19.50;99.90;;;;;;4937273;29;20044;-85
2021/06/09 08:10:55;;;;;;;17.48;13.38;;;19.60;99.90;;;;;;4937090;29;20404;-78
2021/06/09 08:13:23;;;;;;;14.00;11.43;;;19.70;99.90;;;;;;4935986;29;20098;-81
2021/06/09 08:15:50;;;;;;;16.13;11.77;;;19.80;99.90;;;;;;4920556;29;20099;-82
2021/06/09 08:18:17;;;;;;;17.67;13.25;;;19.90;99.90;;;;;;4931025;29;20127;-84
2021/06/09 08:21:10;;;;;;;13.50;11.10;;;20.00;99.90;;;;;;4937570;29;20075;-84
2021/06/09 08:23:37;;;;;;;16.55;12.88;;;20.10;99.90;;;;;;4936902;29;20099;-82
2021/06/09 08:26:05;;;;;;;14.40;11.70;;;20.10;99.90;;;;;;4936723;29;20544;-87
2021/06/09 08:28:35;;;;;;;12.77;10.45;;;20.20;99.90;;;;;;4920034;29;20465;-89
2021/06/09 08:31:03;;;;;;;12.90;10.43;;;20.10;99.90;;;;;;4937746;29;20060;-80
2021/06/09 08:33:29;;;;;;;16.10;12.90;;;20.20;99.90;;;;;;4937202;29;20163;-79
2021/06/09 08:35:56;;;;;;;19.10;14.68;;;20.20;99.90;;;;;;4936616;29;20142;-79
2021/06/09 08:38:24;;;;;;;15.82;11.00;;;20.20;99.90;;;;;;4935888;29;20450;-80
2021/06/09 08:40:51;;;;;;;13.90;10.60;;;20.20;99.90;;;;;;4936237;29;20142;-80
2021/06/09 08:43:20;;;;;;;16.50;12.98;;;20.20;99.90;;;;;;4936154;29;20167;-80
2021/06/09 08:45:48;;;;;;;14.27;11.40;;;20.20;99.90;;;;;;4936255;29;20478;-80
2021/06/09 08:48:16;;;;;;;16.23;11.40;;;20.30;99.90;;;;;;4935947;29;20159;-77
2021/06/09 08:50:44;;;;;;;15.55;12.25;;;20.50;99.90;;;;;;4936643;29;20134;-79
2021/06/09 08:53:13;;;;;;;16.60;13.30;;;20.50;99.90;;;;;;4934760;29;20481;-78
2021/06/09 08:55:41;;;;;;;16.85;12.15;;;20.60;99.90;;;;;;4935877;29;20059;-79
2021/06/09 08:58:09;;;;;;;14.13;11.50;;;20.60;99.90;;;;;;4935745;29;20190;-80
2021/06/09 09:00:38;;;;;;;15.27;11.70;;;20.70;99.90;;;;;;4935952;29;20437;-80
2021/06/09 09:03:05;;;;;;;15.18;11.98;;;20.60;99.90;;;;;;4935857;29;20449;-80
2021/06/09 09:05:33;;;;;;;15.45;12.52;;;20.70;99.90;;;;;;4935547;29;20052;-79
2021/06/09 09:08:01;;;;;;;17.27;13.07;;;20.80;99.90;;;;;;4935930;29;20152;-79
2021/06/09 09:10:28;;;;;;;16.25;11.70;;;20.90;99.90;;;;;;4935927;29;20103;-80
2021/06/09 09:12:56;;;;;;;14.45;11.32;;;21.00;99.90;;;;;;4935764;29;20469;-78
2021/06/09 09:15:24;;;;;;;12.20;9.48;;;21.10;99.90;;;;;;4935848;29;20055;-79
2021/06/09 09:17:53;;;;;;;14.48;11.10;;;21.20;99.90;;;;;;4935965;29;20050;-79
2021/06/09 09:20:27;;;;;;;15.90;11.90;;;21.30;99.90;;;;;;4935654;29;20095;-79
2021/06/09 09:22:58;;;;;;;13.15;10.30;;;21.40;99.90;;;;;;4935743;29;20111;-79
2021/06/09 09:25:26;;;;;;;15.05;11.07;;;21.40;99.90;;;;;;4936608;29;20146;-79
2021/06/09 09:27:57;;;;;;;15.23;11.70;;;21.50;99.90;;;;;;4936046;29;20090;-79
2021/06/09 09:30:26;;;;;;;14.48;10.75;;;21.60;99.70;;;;;;4936223;29;20452;-79
2021/06/09 09:33:00;;;;;;;12.80;10.85;;;21.60;99.80;;;;;;4936259;29;20048;-77
2021/06/09 09:35:29;;;;;;;13.52;10.85;;;21.70;99.60;;;;;;4939214;29;20138;-79
2021/06/09 09:38:29;;;;;;;13.85;11.48;;;21.80;99.50;;;;;;4939632;29;20146;-77
2021/06/09 09:41:08;;;;;;;12.65;10.05;;;21.80;99.50;;;;;;4939239;29;20077;-78
2021/06/09 09:43:53;;;;;;;11.93;10.10;;;21.90;99.90;;;;;;4943285;29;20082;-78
2021/06/09 09:46:23;;;;;;;11.98;9.90;;;21.90;99.60;;;;;;4939576;29;20128;-77
2021/06/09 09:49:07;;;;;;;13.23;10.07;;;21.90;99.50;;;;;;4930755;29;20056;-80
2021/06/09 09:51:38;;;;;;;11.73;9.48;;;22.00;99.50;;;;;;4939726;29;20060;-80
2021/06/09 09:54:07;;;;;;;14.05;11.18;;;22.10;99.30;;;;;;4928807;29;20552;-80
2021/06/09 09:56:36;;;;;;;14.23;11.05;;;22.30;99.00;;;;;;4939665;29;20055;-78
2021/06/09 09:59:09;;;;;;;12.32;9.63;;;22.30;98.90;;;;;;4938782;29;20127;-77
2021/06/09 10:01:39;;;;;;;9.23;7.55;;;22.30;98.90;;;;;;4938806;29;20122;-80
2021/06/09 10:04:08;;;;;;;14.07;11.90;;;22.30;99.20;;;;;;4924394;29;20135;-78
2021/06/09 10:06:41;;;;;;;14.80;11.32;;;22.30;99.10;;;;;;4939365;29;20489;-79
2021/06/09 10:09:15;;;;;;;12.55;10.63;;;22.40;99.10;;;;;;4930487;29;20130;-80
2021/06/09 10:11:45;;;;;;;14.20;10.87;;;22.40;99.00;;;;;;4939249;29;20059;-78
2021/06/09 10:14:23;;;;;;;17.20;13.32;;;22.40;99.10;;;;;;4939063;29;20450;-78
2021/06/09 10:16:58;;;;;;;14.50;11.23;;;22.40;98.90;;;;;;4938798;29;20132;-77
2021/06/09 10:19:30;;;;;;;13.23;11.43;;;22.40;99.20;;;;;;4938971;29;20461;-77
2021/06/09 10:22:02;;;;;;;11.43;9.38;;;22.40;98.80;;;;;;4943549;29;20066;-77
2021/06/09 10:24:28;;;;;;;13.93;10.45;;;22.50;98.80;;;;;;4931875;29;20052;-78
2021/06/09 10:27:01;;;;;;;13.13;10.70;;;22.50;99.00;;;;;;4938263;29;20489;-79
2021/06/09 10:29:31;;;;;;;15.30;13.07;;;22.50;99.10;;;;;;4938991;29;20044;-79
2021/06/09 10:32:00;;;;;;;13.57;10.95;;;22.50;99.10;;;;;;4938610;29;20060;-80
2021/06/09 10:34:28;;;;;;;14.95;12.55;;;22.40;99.20;;;;;;4939053;29;20130;-79
2021/06/09 10:36:57;;;;;;;16.30;13.38;;;22.60;99.10;;;;;;4938805;29;20075;-78
2021/06/09 10:39:27;;;;;;;13.68;10.73;;;22.60;98.80;;;;;;4938419;29;20051;-78
2021/06/09 10:41:57;;;;;;;13.95;11.48;;;22.60;98.90;;;;;;4939177;29;20075;-78
2021/06/09 10:44:26;;;;;;;13.00;11.07;;;22.60;98.50;;;;;;4938368;29;20094;-79
2021/06/09 10:46:57;;;;;;;15.13;12.50;;;22.70;98.20;;;;;;4937796;29;20070;-78
2021/06/09 10:49:25;;;;;;;13.27;10.98;;;22.70;98.00;;;;;;4937803;29;20371;-80
2021/06/09 10:51:54;;;;;;;11.75;9.60;;;22.70;98.20;;;;;;4938406;29;20052;-79
2021/06/09 10:54:24;;;;;;;14.27;10.48;;;22.70;98.40;;;;;;4937273;29;20110;-78
2021/06/09 10:56:54;;;;;;;11.70;9.90;;;22.70;98.50;;;;;;4935352;29;20505;-78
2021/06/09 10:59:23;;;;;;;10.48;9.07;;;22.70;98.20;;;;;;4936288;29;20067;-80
2021/06/09 11:01:52;;;;;;;9.88;8.65;;;22.70;98.20;;;;;;4935309;29;20143;-80
2021/06/09 11:04:20;;;;;;;9.88;8.68;;;22.80;98.20;;;;;;4935856;29;20053;-79
2021/06/09 11:06:49;;;;;;;14.57;11.73;;;22.80;98.30;;;;;;4935777;29;20055;-79
2021/06/09 11:09:23;;;;;;;11.32;9.52;;;22.90;98.10;;;;;;4935561;29;20052;-77
2021/06/09 11:12:18;;;;;;;10.30;8.98;;;23.00;98.20;;;;;;4935328;29;20167;-78
2021/06/09 11:14:48;;;;;;;12.52;9.90;;;23.10;98.20;;;;;;4935528;29;20087;-79
2021/06/09 11:17:16;;;;;;;11.65;8.88;;;23.10;98.20;;;;;;4935907;29;20128;-79
2021/06/09 11:19:46;;;;;;;14.13;12.02;;;23.20;98.20;;;;;;4935147;29;20060;-80
2021/06/09 11:22:23;;;;;;;13.80;12.02;;;23.30;97.50;;;;;;4938852;29;20062;-82
2021/06/09 11:25:17;;;;;;;16.02;13.45;;;23.30;97.10;;;;;;4938262;29;20476;-83
2021/06/09 11:28:05;;;;;;;;;;;23.30;96.60;;;;;;4938076;29;20062;-79
2021/06/09 11:30:54;;;;;;;12.40;10.50;;;23.30;95.90;;;;;;4933535;29;19923;-80
2021/06/09 11:33:46;;;;;;;15.30;12.90;;;23.30;96.10;;;;;;4938280;29;20142;-79
2021/06/09 11:36:43;;;;;;;13.18;11.23;;;23.30;96.00;;;;;;4938093;29;20138;-81
2021/06/09 11:39:23;;;;;;;12.88;10.52;;;23.30;96.10;;;;;;4923617;29;20063;-81
2021/06/09 11:41:52;;;;;;;11.18;9.25;;;23.40;96.40;;;;;;4937777;29;20086;-81
2021/06/09 11:44:32;;;;;;;12.48;8.65;;;23.50;96.80;;;;;;4937759;29;20130;-81
2021/06/09 11:47:20;;;;;;;13.63;11.95;;;23.70;97.20;;;;;;4937798;29;20146;-80
2021/06/09 11:49:48;;;;;;;13.95;10.65;;;23.70;96.20;;;;;;4936866;29;20051;-80
2021/06/09 11:52:17;;;;;;;10.82;9.70;;;23.80;95.00;;;;;;4937632;29;20048;-79
2021/06/09 11:54:44;;;;;;;9.35;7.97;;;23.90;94.60;;;;;;4937347;29;20044;-79
2021/06/09 11:57:18;;;;;;;9.32;8.02;;;24.10;94.80;;;;;;4936258;29;20082;-79
2021/06/09 11:59:47;;;;;;;10.93;8.43;;;24.20;94.70;;;;;;4937638;29;20052;-78
2021/06/09 12:02:20;;;;;;;10.25;8.40;;;24.30;94.50;;;;;;4937221;29;20047;-80
2021/06/09 12:04:49;;;;;;;8.57;7.00;;;24.40;94.50;;;;;;4936402;29;20191;-80
2021/06/09 12:07:24;;;;;;;9.75;7.70;;;24.50;94.70;;;;;;4937252;29;20176;-79
2021/06/09 12:09:55;;;;;;;9.90;8.43;;;24.50;94.00;;;;;;4937550;29;20079;-78
2021/06/09 12:12:24;;;;;;;9.20;8.20;;;24.60;93.20;;;;;;4936974;29;20044;-79
2021/06/09 12:14:53;;;;;;;8.20;6.55;;;24.60;92.30;;;;;;4936880;29;20147;-79
2021/06/09 12:17:23;;;;;;;8.00;6.38;;;24.60;92.90;;;;;;4937307;29;20070;-78
2021/06/09 12:19:57;;;;;;;8.52;6.80;;;24.60;93.30;;;;;;4936598;29;20087;-78
2021/06/09 12:22:27;;;;;;;8.00;6.47;;;24.70;92.70;;;;;;4936591;29;20123;-78
2021/06/09 12:25:07;;;;;;;7.72;5.93;;;24.70;92.70;;;;;;4937183;29;20055;-79
2021/06/09 12:27:36;;;;;;;6.85;5.50;;;24.70;92.60;;;;;;4936876;29;20428;-79
2021/06/09 12:30:05;;;;;;;9.27;6.25;;;24.80;92.70;;;;;;4936467;29;20519;-78
2021/06/09 12:32:35;;;;;;;6.40;5.22;;;24.90;92.20;;;;;;4936823;29;20496;-79
2021/06/09 12:35:05;;;;;;;10.30;7.72;;;25.00;92.30;;;;;;4936550;29;20146;-80
2021/06/09 12:37:35;;;;;;;7.90;6.35;;;25.20;91.40;;;;;;4936398;29;20075;-81
2021/06/09 12:40:07;;;;;;;8.18;6.90;;;25.30;91.20;;;;;;4936592;29;20127;-80
2021/06/09 12:42:34;;;;;;;6.68;5.70;;;25.40;90.30;;;;;;4936663;29;20450;-78
2021/06/09 12:45:07;;;;;;;6.85;5.30;;;25.60;90.50;;;;;;4936707;29;20087;-79
2021/06/09 12:47:36;;;;;;;7.90;6.05;;;25.70;90.20;;;;;;4935810;29;20155;-79
2021/06/09 12:50:16;;;;;;;7.35;6.55;;;25.90;87.60;;;;;;4936157;29;20043;-80
2021/06/09 12:52:46;;;;;;;7.45;5.88;;;26.00;82.60;;;;;;4935837;29;20127;-79
2021/06/09 12:55:17;;;;;;;5.93;5.03;;;26.10;78.10;;;;;;4936202;29;20480;-79
2021/06/09 12:57:46;;;;;;;6.78;5.55;;;26.20;80.00;;;;;;4936326;29;20135;-77
2021/06/09 13:00:31;;;;;;;7.78;5.38;;;26.30;81.40;;;;;;4937036;29;20071;-78
2021/06/09 13:03:17;;;;;;;6.03;4.85;;;26.50;82.40;;;;;;4937679;29;20094;-80
2021/06/09 13:05:47;;;;;;;6.60;5.03;;;;;;;;;;4941163;29;20094;-79
2021/06/09 13:08:18;;;;;;;6.55;5.30;;;26.90;87.00;;;;;;4936410;29;20580;-79
2021/06/09 13:10:47;;;;;;;6.72;5.50;;;27.10;83.90;;;;;;4935802;29;20552;-78
2021/06/09 13:13:17;;;;;;;7.10;5.82;;;27.30;82.90;;;;;;4935756;29;20043;-78
2021/06/09 13:15:50;;;;;;;7.97;6.90;;;27.50;79.70;;;;;;4936007;29;20181;-79
2021/06/09 13:18:38;;;;;;;7.03;5.90;;;27.60;75.20;;;;;;4933362;29;20079;-76
2021/06/09 13:21:26;;;;;;;6.97;5.80;;;27.70;74.70;;;;;;4927593;29;20493;-77
2021/06/09 13:23:59;;;;;;;7.32;6.22;;;27.70;74.20;;;;;;4927836;29;20135;-77
2021/06/09 13:26:33;;;;;;;7.65;6.18;;;27.70;75.40;;;;;;4943762;29;20130;-77
2021/06/09 13:29:12;;;;;;;7.95;6.90;;;27.50;73.80;;;;;;4939531;29;20055;-77
2021/06/09 13:31:41;;;;;;;7.60;6.57;;;27.40;73.30;;;;;;4949936;29;20134;-75
2021/06/09 13:34:09;;;;;;;8.10;7.07;;;27.20;72.70;;;;;;4943348;29;20138;-78
2021/06/09 13:36:36;;;;;;;9.43;7.43;;;26.90;73.30;;;;;;4944956;29;20130;-77
2021/06/09 13:39:08;;;;;;;8.70;7.07;;;26.70;74.40;;;;;;4928912;29;20048;-76
2021/06/09 13:41:38;;;;;;;7.63;6.53;;;26.40;76.40;;;;;;4950739;29;20138;-80
2021/06/09 13:44:05;;;;;;;8.68;6.32;;;26.20;76.50;;;;;;4941330;29;20134;-79
2021/06/09 13:46:47;;;;;;;8.65;6.55;;;25.90;79.30;;;;;;4942264;29;20080;-76
2021/06/09 13:49:26;;;;;;;8.48;6.20;;;25.50;85.70;;;;;;4942175;29;20048;-80
2021/06/09 13:51:53;;;;;;;11.63;6.20;;;25.10;90.10;;;;;;4939242;29;20497;-78
2021/06/09 13:54:30;;;;;;;5.38;4.53;;;24.70;90.10;;;;;;4937377;29;20039;-76
2021/06/09 13:57:09;;;;;;;5.88;4.22;;;24.30;88.70;;;;;;4935786;29;20506;-78
2021/06/09 13:59:49;;;;;;;7.57;4.85;;;24.00;90.80;;;;;;4936195;29;20051;-79
2021/06/09 14:02:24;;;;;;;5.80;4.38;;;23.70;92.30;;;;;;4929707;29;20548;-79
2021/06/09 14:04:51;;;;;;;7.10;4.15;;;23.50;93.60;;;;;;4936305;29;20060;-79
2021/06/09 14:07:21;;;;;;;7.07;4.53;;;23.30;96.40;;;;;;4946091;29;20047;-75
2021/06/09 14:09:52;;;;;;;6.13;5.05;;;23.10;97.10;;;;;;4935391;29;20169;-78
2021/06/09 14:12:19;;;;;;;7.90;5.10;;;23.00;98.00;;;;;;4940190;29;20055;-78
2021/06/09 14:14:46;;;;;;;7.18;4.90;;;22.80;99.10;;;;;;4952107;29;20047;-77
2021/06/09 14:17:16;;;;;;;6.43;4.80;;;22.70;98.60;;;;;;4942336;29;20044;-78
2021/06/09 14:19:54;;;;;;;6.30;4.90;;;22.50;98.60;;;;;;4943387;29;20147;-79
2021/06/09 14:22:26;;;;;;;7.25;5.20;;;22.40;98.10;;;;;;4934743;29;20122;-78
2021/06/09 14:24:57;;;;;;;6.70;5.28;;;22.40;97.90;;;;;;4948944;29;20134;-77
2021/06/09 14:27:24;;;;;;;7.30;5.25;;;22.20;97.90;;;;;;4942032;29;20131;-78
2021/06/09 14:30:10;;;;;;;7.30;4.68;;;22.10;97.80;;;;;;4933151;29;20500;-77
2021/06/09 14:33:09;;;;;;;6.97;4.90;;;21.90;97.70;;;;;;4935273;29;20259;-78
2021/06/09 14:35:54;;;;;;;8.00;5.10;;;21.80;98.00;;;;;;4951084;29;20047;-80
2021/06/09 14:38:24;;;;;;;8.63;5.88;;;21.80;98.40;;;;;;4932526;29;20152;-80
2021/06/09 14:40:54;;;;;;;8.45;6.22;;;21.70;98.60;;;;;;4940124;29;20092;-79
2021/06/09 14:43:23;;;;;;;8.23;5.72;;;21.60;99.30;;;;;;4951843;29;20086;-80
2021/06/09 14:45:51;;;;;;;7.50;5.28;;;21.50;98.80;;;;;;4942960;29;20395;-78
2021/06/09 14:51:22;;;;;;;6.70;5.20;;;21.20;99.20;;;;;;4944547;29;20118;-78
2021/06/09 14:53:52;;;;;;;6.53;5.03;;;21.20;99.30;;;;;;4935721;29;20134;-78
2021/06/09 14:56:22;;;;;;;7.60;4.85;;;21.10;99.30;;;;;;4949970;29;20058;-80
2021/06/09 14:58:50;;;;;;;7.93;5.35;;;21.10;99.60;;;;;;4951291;29;20070;-80
2021/06/09 15:01:21;;;;;;;7.65;5.18;;;21.00;99.30;;;;;;4943304;29;20514;-79
2021/06/09 15:03:50;;;;;;;8.75;5.68;;;21.00;99.30;;;;;;4937138;29;20181;-79
2021/06/09 15:06:17;;;;;;;7.35;5.18;;;20.90;99.60;;;;;;4942427;29;20054;-78
2021/06/09 15:08:44;;;;;;;8.35;5.30;;;20.90;99.80;;;;;;4941414;29;20130;-79
2021/06/09 15:11:11;;;;;;;9.13;6.57;;;20.90;99.90;;;;;;4938579;29;20480;-79
2021/06/09 15:13:39;;;;;;;7.82;5.85;;;20.80;99.90;;;;;;4937912;29;20087;-78
2021/06/09 15:16:06;;;;;;;8.10;6.18;;;20.80;99.90;;;;;;4930773;29;20051;-77
2021/06/09 15:18:35;;;;;;;9.25;5.38;;;20.70;99.30;;;;;;4937982;29;20083;-77
2021/06/09 15:21:03;;;;;;;6.32;4.90;;;20.60;99.40;;;;;;4930119;29;20114;-78
2021/06/09 15:23:29;;;;;;;7.72;5.18;;;20.60;99.80;;;;;;4938078;29;20088;-78
2021/06/09 15:25:56;;;;;;;7.63;5.30;;;20.70;99.90;;;;;;4937506;29;20106;-74
2021/06/09 15:28:23;;;;;;;6.70;5.07;;;20.70;99.90;;;;;;4937781;29;20466;-77
2021/06/09 15:30:51;;;;;;;8.43;5.68;;;20.80;99.80;;;;;;4937513;29;20048;-78
2021/06/09 15:33:17;;;;;;;6.90;5.03;;;20.90;99.80;;;;;;4937803;29;20079;-77
2021/06/09 15:35:44;;;;;;;8.20;5.47;;;20.90;99.90;;;;;;4937821;29;20130;-77
2021/06/09 15:38:11;;;;;;;6.88;5.40;;;21.00;99.90;;;;;;4937981;29;20080;-77
2021/06/09 15:40:37;;;;;;;9.13;5.72;;;21.10;99.90;;;;;;4937771;29;20581;-84
2021/06/09 15:43:05;;;;;;;7.93;5.47;;;21.20;99.90;;;;;;4938504;29;20504;-86
2021/06/09 15:45:32;;;;;;;7.55;5.63;;;21.30;99.90;;;;;;4922315;29;20115;-84
2021/06/09 15:48:01;;;;;;;6.97;5.43;;;21.30;99.90;;;;;;4920766;29;20071;-83
2021/06/09 15:50:27;;;;;;;8.35;5.70;;;21.40;99.90;;;;;;4947094;29;20078;-84
2021/06/09 15:52:54;;;;;;;8.45;6.13;;;21.50;99.90;;;;;;4948297;29;20052;-78
2021/06/09 15:55:20;;;;;;;7.95;5.97;;;21.50;99.90;;;;;;4947639;29;20520;-78
2021/06/09 15:57:47;;;;;;;9.15;6.28;;;21.50;99.90;;;;;;4947076;29;20078;-79
2021/06/09 16:00:18;;;;;;;7.97;6.13;;;21.50;99.90;;;;;;4947837;29;20134;-77
2021/06/09 16:02:45;;;;;;;8.30;6.50;;;21.60;99.90;;;;;;4947461;29;20401;-77
2021/06/09 16:05:14;;;;;;;7.38;5.75;;;21.60;99.90;;;;;;4940209;29;20095;-77
2021/06/09 16:07:41;;;;;;;7.53;5.60;;;21.60;99.90;;;;;;4937345;29;20086;-76
2021/06/09 16:10:09;;;;;;;7.55;5.10;;;21.70;99.90;;;;;;4937499;29;20130;-78
2021/06/09 16:12:36;;;;;;;6.65;5.32;;;21.70;99.90;;;;;;4938369;29;20086;-79
2021/06/09 16:15:05;;;;;;;7.13;5.20;;;21.70;99.90;;;;;;4942975;29;20096;-76
2021/06/09 16:17:32;;;;;;;6.93;5.05;;;21.80;99.90;;;;;;4945615;29;20086;-76
2021/06/09 16:19:59;;;;;;;7.18;5.10;;;21.80;99.80;;;;;;4938820;29;20135;-77
2021/06/09 16:22:27;;;;;;;7.20;4.80;;;21.90;99.90;;;;;;4937257;29;20503;-75
2021/06/09 16:24:53;;;;;;;7.28;5.60;;;22.10;99.40;;;;;;4937025;29;20414;-76
2021/06/09 16:27:20;;;;;;;7.10;5.22;;;22.10;99.30;;;;;;4937059;29;20058;-80
2021/06/09 16:29:46;;;;;;;9.98;7.07;;;22.20;99.20;;;;;;4938544;29;20107;-77
2021/06/09 16:32:13;;;;;;;7.53;5.60;;;22.40;99.20;;;;;;4943816;29;20209;-78
2021/06/09 16:34:41;;;;;;;7.18;5.30;;;22.50;98.90;;;;;;4937214;29;20079;-77
2021/06/09 16:37:08;;;;;;;6.65;5.20;;;22.60;98.60;;;;;;4936578;29;20120;-78
2021/06/09 16:39:36;;;;;;;5.88;4.90;;;22.60;98.30;;;;;;4937217;29;20131;-77
2021/06/09 16:42:05;;;;;;;7.85;5.45;;;22.60;98.30;;;;;;4935770;29;20111;-77
2021/06/09 16:44:31;;;;;;;7.15;5.40;;;22.60;98.30;;;;;;4937322;29;20130;-78
2021/06/09 16:46:59;;;;;;;7.63;6.10;;;22.60;98.20;;;;;;4936667;29;20071;-76
2021/06/09 16:49:27;;;;;;;7.30;5.25;;;22.60;98.30;;;;;;4939488;29;20135;-77
2021/06/09 16:51:56;;;;;;;6.43;5.20;;;22.50;98.80;;;;;;4937384;29;20050;-78
2021/06/09 16:54:28;;;;;;;6.53;5.00;;;22.50;99.10;;;;;;4937915;29;20096;-77
2021/06/09 16:59:41;;;;;;;7.28;5.47;;;22.40;99.30;;;;;;4936962;29;20523;-79
2021/06/09 17:02:08;;;;;;;7.60;5.93;;;22.30;99.40;;;;;;4944801;29;20071;-81
2021/06/09 17:04:34;;;;;;;9.48;5.95;;;22.30;99.30;;;;;;4950346;29;20090;-76
2021/06/09 17:07:01;;;;;;;7.43;6.00;;;22.20;99.30;;;;;;4946353;29;20138;-76
2021/06/09 17:09:28;;;;;;;7.63;6.30;;;22.10;99.50;;;;;;4934472;29;20051;-75
2021/06/09 17:11:57;;;;;;;11.07;6.85;;;22.00;99.90;;;;;;4945820;29;20086;-75
2021/06/09 17:14:23;;;;;;;10.02;6.63;;;21.90;99.90;;;;;;4947522;29;20048;-77
2021/06/09 17:16:51;;;;;;;8.77;6.55;;;21.80;99.90;;;;;;4945876;29;20054;-76
2021/06/09 17:19:18;;;;;;;7.88;6.20;;;21.70;99.90;;;;;;4948846;29;20048;-76
2021/06/09 17:21:45;;;;;;;9.15;5.47;;;21.60;99.90;;;;;;4945537;29;20075;-77
2021/06/09 17:24:12;;;;;;;6.03;4.90;;;21.50;99.90;;;;;;4936873;29;20131;-77
2021/06/09 17:26:40;;;;;;;6.05;5.05;;;21.60;99.90;;;;;;4936547;29;20089;-80
2021/06/09 17:29:08;;;;;;;7.57;5.15;;;21.80;99.90;;;;;;4934457;29;20075;-78
2021/06/09 17:31:35;;;;;;;7.07;5.78;;;22.00;99.90;;;;;;4942555;29;20103;-76
2021/06/09 17:34:02;;;;;;;6.32;5.25;;;22.20;99.90;;;;;;4947211;29;20044;-77
2021/06/09 17:36:28;;;;;;;6.63;5.05;;;22.50;99.90;;;;;;4956677;29;20145;-79
2021/06/09 17:38:55;;;;;;;6.32;5.00;;;22.70;99.90;;;;;;4957018;29;20126;-78
2021/06/09 17:41:21;;;;;;;6.93;5.28;;;23.00;99.30;;;;;;4944414;29;20126;-79
2021/06/09 17:43:48;;;;;;;5.95;4.80;;;23.20;98.60;;;;;;4950803;29;20055;-76
2021/06/09 17:46:16;;;;;;;6.97;5.20;;;23.40;98.10;;;;;;4956591;29;20087;-77
2021/06/09 17:48:43;;;;;;;8.68;6.20;;;23.70;97.40;;;;;;4939179;29;20088;-76
2021/06/09 17:51:11;;;;;;;8.18;5.95;;;23.80;97.00;;;;;;4938074;29;20048;-78
2021/06/09 17:53:37;;;;;;;9.52;5.82;;;24.00;96.80;;;;;;4944575;29;20048;-79
2021/06/09 17:56:05;;;;;;;7.63;5.80;;;24.00;96.60;;;;;;4946824;29;20079;-78
2021/06/09 17:58:31;;;;;;;8.05;5.32;;;24.10;96.50;;;;;;4956249;29;20043;-78
2021/06/09 18:01:06;;;;;;;6.88;5.28;;;24.10;96.40;;;;;;4952449;29;20070;-75